Hulett, Wyoming
Current Conditions -  °F | °C
As of 1:55 AM on Saturday 22 Nov 2014 (Local Time) from KSPF Reporting Station
Clear Clear  
Wind Chill: 36°   Ceiling: Unl
Heat Index: 36°   Visibility: 10mi
Dew Point: 19°   Wind: 3mph
Humidity: 52%   Direction: 170°S
Pressure: 29.66"   Gusts: NA
Location:  44.68°N, 104.6°W
Report Text: KSPF 220855Z AUTO 17003KT 10SM CLR 02/M07 A2966 RMK AO2
Loading
Personal Weather Stations






























Interactive Weather Map New forecast layout! Learn more

10-Day Weather Forecast

Advertisements
Track Severe Weather on mobile